sensor_id;sensor_type;location;lat;lon;timestamp;temperature;humidity
28244;DHT22;15510;52.512;13.300;2023-06-10T00:01:05;17.90;99.90
28244;DHT22;15510;52.512;13.300;2023-06-10T00:03:34;17.70;99.90
28244;DHT22;15510;52.512;13.300;2023-06-10T00:05:59;17.60;99.90
28244;DHT22;15510;52.512;13.300;2023-06-10T00:08:25;17.60;99.90
28244;DHT22;15510;52.512;13.300;2023-06-10T00:10:51;17.60;99.90
28244;DHT22;15510;52.512;13.300;2023-06-10T00:13:17;17.60;99.90
28244;DHT22;15510;52.512;13.300;2023-06-10T00:15:46;17.60;99.90
28244;DHT22;15510;52.512;13.300;2023-06-10T00:18:12;17.50;99.90
28244;DHT22;15510;52.512;13.300;2023-06-10T00:20:39;17.60;99.90
28244;DHT22;15510;52.512;13.300;2023-06-10T00:23:05;17.60;99.90
28244;DHT22;15510;52.512;13.300;2023-06-10T00:25:36;17.60;99.90
28244;DHT22;15510;52.512;13.300;2023-06-10T00:28:02;17.50;99.90
28244;DHT22;15510;52.512;13.300;2023-06-10T00:30:32;17.60;99.90
28244;DHT22;15510;52.512;13.300;2023-06-10T00:32:58;17.60;99.90
28244;DHT22;15510;52.512;13.300;2023-06-10T00:35:25;17.60;99.90
28244;DHT22;15510;52.512;13.300;2023-06-10T00:37:52;17.60;99.90
28244;DHT22;15510;52.512;13.300;2023-06-10T00:40:17;17.50;99.90
28244;DHT22;15510;52.512;13.300;2023-06-10T00:42:43;17.40;99.90
28244;DHT22;15510;52.512;13.300;2023-06-10T00:45:09;17.40;99.90
28244;DHT22;15510;52.512;13.300;2023-06-10T00:47:36;17.50;99.90
28244;DHT22;15510;52.512;13.300;2023-06-10T00:50:02;17.40;99.90
28244;DHT22;15510;52.512;13.300;2023-06-10T00:52:30;17.40;99.90
28244;DHT22;15510;52.512;13.300;2023-06-10T00:54:56;17.40;99.90
28244;DHT22;15510;52.512;13.300;2023-06-10T00:57:22;17.30;99.90
28244;DHT22;15510;52.512;13.300;2023-06-10T00:59:49;17.30;99.90
28244;DHT22;15510;52.512;13.300;2023-06-10T01:02:15;17.30;99.90
28244;DHT22;15510;52.512;13.300;2023-06-10T01:04:41;17.30;99.90
28244;DHT22;15510;52.512;13.300;2023-06-10T01:07:23;17.20;99.90
28244;DHT22;15510;52.512;13.300;2023-06-10T01:13:00;17.10;99.90
28244;DHT22;15510;52.512;13.300;2023-06-10T01:15:35;17.10;99.90
28244;DHT22;15510;52.512;13.300;2023-06-10T01:18:03;17.10;99.90
28244;DHT22;15510;52.512;13.300;2023-06-10T01:20:32;17.20;99.90
28244;DHT22;15510;52.512;13.300;2023-06-10T01:22:59;17.20;99.90
28244;DHT22;15510;52.512;13.300;2023-06-10T01:25:27;17.20;99.90
28244;DHT22;15510;52.512;13.300;2023-06-10T01:28:45;17.10;99.90
28244;DHT22;15510;52.512;13.300;2023-06-10T01:33:45;17.00;99.90
28244;DHT22;15510;52.512;13.300;2023-06-10T01:36:13;17.00;99.90
28244;DHT22;15510;52.512;13.300;2023-06-10T01:38:43;17.00;99.90
28244;DHT22;15510;52.512;13.300;2023-06-10T01:41:15;16.90;99.90
28244;DHT22;15510;52.512;13.300;2023-06-10T01:43:44;16.80;99.90
28244;DHT22;15510;52.512;13.300;2023-06-10T01:46:10;16.70;99.90
28244;DHT22;15510;52.512;13.300;2023-06-10T01:48:37;16.70;99.90
28244;DHT22;15510;52.512;13.300;2023-06-10T01:51:04;16.70;99.90
28244;DHT22;15510;52.512;13.300;2023-06-10T01:53:33;16.60;99.90
28244;DHT22;15510;52.512;13.300;2023-06-10T01:55:58;16.60;99.90
28244;DHT22;15510;52.512;13.300;2023-06-10T01:58:28;16.60;99.90
28244;DHT22;15510;52.512;13.300;2023-06-10T02:00:55;16.70;99.90
28244;DHT22;15510;52.512;13.300;2023-06-10T02:03:21;16.80;99.90
28244;DHT22;15510;52.512;13.300;2023-06-10T02:05:47;16.80;99.90
28244;DHT22;15510;52.512;13.300;2023-06-10T02:08:15;16.80;99.90
28244;DHT22;15510;52.512;13.300;2023-06-10T02:10:41;16.80;99.90
28244;DHT22;15510;52.512;13.300;2023-06-10T02:13:07;16.70;99.90
28244;DHT22;15510;52.512;13.300;2023-06-10T02:15:33;16.60;99.90
28244;DHT22;15510;52.512;13.300;2023-06-10T02:17:59;16.60;99.90
28244;DHT22;15510;52.512;13.300;2023-06-10T02:20:26;16.70;99.90
28244;DHT22;15510;52.512;13.300;2023-06-10T02:22:52;16.70;99.90
28244;DHT22;15510;52.512;13.300;2023-06-10T02:25:18;16.60;99.90
28244;DHT22;15510;52.512;13.300;2023-06-10T02:27:44;16.70;99.90
28244;DHT22;15510;52.512;13.300;2023-06-10T02:30:11;16.70;99.90
28244;DHT22;15510;52.512;13.300;2023-06-10T02:32:37;16.70;99.90
28244;DHT22;15510;52.512;13.300;2023-06-10T02:35:04;16.70;99.90
28244;DHT22;15510;52.512;13.300;2023-06-10T02:37:31;16.60;99.90
28244;DHT22;15510;52.512;13.300;2023-06-10T02:39:57;16.70;99.90
28244;DHT22;15510;52.512;13.300;2023-06-10T02:42:23;16.60;99.90
28244;DHT22;15510;52.512;13.300;2023-06-10T02:44:51;16.60;99.90
28244;DHT22;15510;52.512;13.300;2023-06-10T02:47:27;16.60;99.90
28244;DHT22;15510;52.512;13.300;2023-06-10T02:49:53;16.50;99.90
28244;DHT22;15510;52.512;13.300;2023-06-10T02:52:18;16.50;99.90
28244;DHT22;15510;52.512;13.300;2023-06-10T02:54:46;16.50;99.90
28244;DHT22;15510;52.512;13.300;2023-06-10T02:57:12;16.50;99.90
28244;DHT22;15510;52.512;13.300;2023-06-10T02:59:40;16.50;99.90
28244;DHT22;15510;52.512;13.300;2023-06-10T03:02:06;16.40;99.90
28244;DHT22;15510;52.512;13.300;2023-06-10T03:04:40;16.40;99.90
28244;DHT22;15510;52.512;13.300;2023-06-10T03:07:12;16.40;99.90
28244;DHT22;15510;52.512;13.300;2023-06-10T03:09:38;16.40;99.90
28244;DHT22;15510;52.512;13.300;2023-06-10T03:12:12;16.40;99.90
28244;DHT22;15510;52.512;13.300;2023-06-10T03:14:43;16.40;99.90
28244;DHT22;15510;52.512;13.300;2023-06-10T03:17:10;16.40;99.90
28244;DHT22;15510;52.512;13.300;2023-06-10T03:19:39;16.40;99.90
28244;DHT22;15510;52.512;13.300;2023-06-10T03:22:12;16.40;99.90
28244;DHT22;15510;52.512;13.300;2023-06-10T03:24:44;16.40;99.90
28244;DHT22;15510;52.512;13.300;2023-06-10T03:27:12;16.40;99.90
28244;DHT22;15510;52.512;13.300;2023-06-10T03:29:41;16.40;99.90
28244;DHT22;15510;52.512;13.300;2023-06-10T03:32:07;16.60;99.90
28244;DHT22;15510;52.512;13.300;2023-06-10T03:34:35;16.60;99.90
28244;DHT22;15510;52.512;13.300;2023-06-10T03:37:01;16.50;99.90
28244;DHT22;15510;52.512;13.300;2023-06-10T03:39:27;16.50;99.90
28244;DHT22;15510;52.512;13.300;2023-06-10T03:41:56;16.40;99.90
28244;DHT22;15510;52.512;13.300;2023-06-10T03:44:27;16.40;99.90
28244;DHT22;15510;52.512;13.300;2023-06-10T03:46:54;16.50;99.90
28244;DHT22;15510;52.512;13.300;2023-06-10T03:49:21;16.50;99.90
28244;DHT22;15510;52.512;13.300;2023-06-10T03:51:48;16.50;99.90
28244;DHT22;15510;52.512;13.300;2023-06-10T03:54:14;16.50;99.90
28244;DHT22;15510;52.512;13.300;2023-06-10T03:56:40;16.50;99.90
28244;DHT22;15510;52.512;13.300;2023-06-10T03:59:06;16.50;99.90
28244;DHT22;15510;52.512;13.300;2023-06-10T04:01:33;16.60;99.90
28244;DHT22;15510;52.512;13.300;2023-06-10T04:04:00;16.60;99.90
28244;DHT22;15510;52.512;13.300;2023-06-10T04:06:27;16.60;99.90
28244;DHT22;15510;52.512;13.300;2023-06-10T04:08:55;16.60;99.90
28244;DHT22;15510;52.512;13.300;2023-06-10T04:11:23;16.60;99.90
28244;DHT22;15510;52.512;13.300;2023-06-10T04:13:50;16.60;99.90
28244;DHT22;15510;52.512;13.300;2023-06-10T04:16:16;16.70;99.90
28244;DHT22;15510;52.512;13.300;2023-06-10T04:18:42;16.60;99.90
28244;DHT22;15510;52.512;13.300;2023-06-10T04:21:09;16.70;99.90
28244;DHT22;15510;52.512;13.300;2023-06-10T04:23:35;16.70;99.90
28244;DHT22;15510;52.512;13.300;2023-06-10T04:26:03;16.60;99.90
28244;DHT22;15510;52.512;13.300;2023-06-10T04:28:29;16.60;99.90
28244;DHT22;15510;52.512;13.300;2023-06-10T04:30:55;16.70;99.90
28244;DHT22;15510;52.512;13.300;2023-06-10T04:33:21;16.80;99.90
28244;DHT22;15510;52.512;13.300;2023-06-10T04:35:48;16.80;99.90
28244;DHT22;15510;52.512;13.300;2023-06-10T04:38:14;16.90;99.90
28244;DHT22;15510;52.512;13.300;2023-06-10T04:40:40;16.90;99.90
28244;DHT22;15510;52.512;13.300;2023-06-10T04:43:07;16.80;99.90
28244;DHT22;15510;52.512;13.300;2023-06-10T04:45:33;16.80;99.90
28244;DHT22;15510;52.512;13.300;2023-06-10T04:47:59;16.80;99.90
28244;DHT22;15510;52.512;13.300;2023-06-10T04:50:27;16.80;99.90
28244;DHT22;15510;52.512;13.300;2023-06-10T04:52:52;16.80;99.90
28244;DHT22;15510;52.512;13.300;2023-06-10T04:55:19;16.80;99.90
28244;DHT22;15510;52.512;13.300;2023-06-10T04:57:45;16.80;99.90
28244;DHT22;15510;52.512;13.300;2023-06-10T05:00:11;16.90;99.90
28244;DHT22;15510;52.512;13.300;2023-06-10T05:02:37;17.00;99.90
28244;DHT22;15510;52.512;13.300;2023-06-10T05:05:03;17.00;99.90
28244;DHT22;15510;52.512;13.300;2023-06-10T05:07:29;16.90;99.90
28244;DHT22;15510;52.512;13.300;2023-06-10T05:09:55;16.90;99.90
28244;DHT22;15510;52.512;13.300;2023-06-10T05:12:21;17.00;99.90
28244;DHT22;15510;52.512;13.300;2023-06-10T05:14:48;17.00;99.90
28244;DHT22;15510;52.512;13.300;2023-06-10T05:17:18;17.00;99.90
28244;DHT22;15510;52.512;13.300;2023-06-10T05:19:47;17.00;99.90
28244;DHT22;15510;52.512;13.300;2023-06-10T05:22:13;17.00;99.90
28244;DHT22;15510;52.512;13.300;2023-06-10T05:24:46;17.00;99.90
28244;DHT22;15510;52.512;13.300;2023-06-10T05:27:12;17.10;99.90
28244;DHT22;15510;52.512;13.300;2023-06-10T05:29:39;17.10;99.90
28244;DHT22;15510;52.512;13.300;2023-06-10T05:32:08;17.20;99.90
28244;DHT22;15510;52.512;13.300;2023-06-10T05:34:34;17.20;99.90
28244;DHT22;15510;52.512;13.300;2023-06-10T05:37:00;17.20;99.90
28244;DHT22;15510;52.512;13.300;2023-06-10T05:39:25;17.20;99.90
28244;DHT22;15510;52.512;13.300;2023-06-10T05:41:51;17.30;99.90
28244;DHT22;15510;52.512;13.300;2023-06-10T05:44:17;17.30;99.90
28244;DHT22;15510;52.512;13.300;2023-06-10T05:46:45;17.30;99.90
28244;DHT22;15510;52.512;13.300;2023-06-10T05:49:11;17.50;99.90
28244;DHT22;15510;52.512;13.300;2023-06-10T05:51:37;17.60;99.90
28244;DHT22;15510;52.512;13.300;2023-06-10T05:54:03;17.80;99.90
28244;DHT22;15510;52.512;13.300;2023-06-10T05:56:29;18.00;99.90
28244;DHT22;15510;52.512;13.300;2023-06-10T05:58:56;18.20;99.90
28244;DHT22;15510;52.512;13.300;2023-06-10T06:01:22;18.40;99.90
28244;DHT22;15510;52.512;13.300;2023-06-10T06:03:48;18.60;99.90
28244;DHT22;15510;52.512;13.300;2023-06-10T06:06:13;19.00;99.90
28244;DHT22;15510;52.512;13.300;2023-06-10T06:08:39;19.20;99.90
28244;DHT22;15510;52.512;13.300;2023-06-10T06:11:05;19.50;99.90
28244;DHT22;15510;52.512;13.300;2023-06-10T06:13:31;19.60;99.90
28244;DHT22;15510;52.512;13.300;2023-06-10T06:15:57;19.60;99.90
28244;DHT22;15510;52.512;13.300;2023-06-10T06:18:23;19.60;99.90
28244;DHT22;15510;52.512;13.300;2023-06-10T06:20:49;19.70;99.90
28244;DHT22;15510;52.512;13.300;2023-06-10T06:23:15;19.50;99.90
28244;DHT22;15510;52.512;13.300;2023-06-10T06:25:44;19.40;99.90
28244;DHT22;15510;52.512;13.300;2023-06-10T06:28:10;19.50;99.90
28244;DHT22;15510;52.512;13.300;2023-06-10T06:30:36;19.50;99.90
28244;DHT22;15510;52.512;13.300;2023-06-10T06:33:02;19.60;99.90
28244;DHT22;15510;52.512;13.300;2023-06-10T06:35:30;19.60;99.90
28244;DHT22;15510;52.512;13.300;2023-06-10T06:37:57;19.80;99.90
28244;DHT22;15510;52.512;13.300;2023-06-10T06:40:27;19.70;99.90
28244;DHT22;15510;52.512;13.300;2023-06-10T06:42:52;19.90;99.90
28244;DHT22;15510;52.512;13.300;2023-06-10T06:45:37;20.00;99.90
28244;DHT22;15510;52.512;13.300;2023-06-10T06:48:04;20.20;99.90
28244;DHT22;15510;52.512;13.300;2023-06-10T06:50:31;20.30;99.90
28244;DHT22;15510;52.512;13.300;2023-06-10T06:52:57;20.40;99.90
28244;DHT22;15510;52.512;13.300;2023-06-10T06:55:23;20.50;99.90
28244;DHT22;15510;52.512;13.300;2023-06-10T06:57:49;20.60;99.90
28244;DHT22;15510;52.512;13.300;2023-06-10T07:00:15;20.50;99.90
28244;DHT22;15510;52.512;13.300;2023-06-10T07:02:41;20.50;99.90
28244;DHT22;15510;52.512;13.300;2023-06-10T07:05:07;20.50;99.90
28244;DHT22;15510;52.512;13.300;2023-06-10T07:07:34;20.50;99.90
28244;DHT22;15510;52.512;13.300;2023-06-10T07:10:00;20.40;99.90
28244;DHT22;15510;52.512;13.300;2023-06-10T07:12:26;20.50;99.90
28244;DHT22;15510;52.512;13.300;2023-06-10T07:14:55;20.70;99.90
28244;DHT22;15510;52.512;13.300;2023-06-10T07:17:25;20.90;99.90
28244;DHT22;15510;52.512;13.300;2023-06-10T07:19:52;21.10;99.90
28244;DHT22;15510;52.512;13.300;2023-06-10T07:22:18;21.10;99.90
28244;DHT22;15510;52.512;13.300;2023-06-10T07:24:44;21.20;99.90
28244;DHT22;15510;52.512;13.300;2023-06-10T07:27:10;21.40;99.90
28244;DHT22;15510;52.512;13.300;2023-06-10T07:29:39;21.80;99.90
28244;DHT22;15510;52.512;13.300;2023-06-10T07:32:05;22.20;99.90
28244;DHT22;15510;52.512;13.300;2023-06-10T07:34:31;22.20;99.90
28244;DHT22;15510;52.512;13.300;2023-06-10T07:36:57;22.40;99.90
28244;DHT22;15510;52.512;13.300;2023-06-10T07:39:23;22.20;99.90
28244;DHT22;15510;52.512;13.300;2023-06-10T07:41:49;22.30;99.90
28244;DHT22;15510;52.512;13.300;2023-06-10T07:44:15;22.30;99.90
28244;DHT22;15510;52.512;13.300;2023-06-10T07:46:41;22.50;99.90
28244;DHT22;15510;52.512;13.300;2023-06-10T07:49:07;22.60;99.90
28244;DHT22;15510;52.512;13.300;2023-06-10T07:51:32;22.90;99.90
28244;DHT22;15510;52.512;13.300;2023-06-10T07:53:58;23.10;99.90
28244;DHT22;15510;52.512;13.300;2023-06-10T07:56:24;23.10;99.90
28244;DHT22;15510;52.512;13.300;2023-06-10T07:58:52;23.30;99.90
28244;DHT22;15510;52.512;13.300;2023-06-10T08:01:17;23.40;99.90
28244;DHT22;15510;52.512;13.300;2023-06-10T08:03:43;23.40;99.90
28244;DHT22;15510;52.512;13.300;2023-06-10T08:06:09;23.40;99.90
28244;DHT22;15510;52.512;13.300;2023-06-10T08:08:39;23.40;99.90
28244;DHT22;15510;52.512;13.300;2023-06-10T08:11:09;23.10;99.90
28244;DHT22;15510;52.512;13.300;2023-06-10T08:13:34;22.80;99.90
28244;DHT22;15510;52.512;13.300;2023-06-10T08:16:00;22.80;99.90
28244;DHT22;15510;52.512;13.300;2023-06-10T08:18:26;22.70;99.90
28244;DHT22;15510;52.512;13.300;2023-06-10T08:20:52;22.60;99.90
28244;DHT22;15510;52.512;13.300;2023-06-10T08:23:18;22.30;99.90
28244;DHT22;15510;52.512;13.300;2023-06-10T08:25:45;22.20;99.90
28244;DHT22;15510;52.512;13.300;2023-06-10T08:28:11;22.10;99.90
28244;DHT22;15510;52.512;13.300;2023-06-10T08:30:36;22.30;99.90
28244;DHT22;15510;52.512;13.300;2023-06-10T08:33:02;22.50;99.90
28244;DHT22;15510;52.512;13.300;2023-06-10T08:35:28;22.60;99.90
28244;DHT22;15510;52.512;13.300;2023-06-10T08:37:54;22.60;99.90
28244;DHT22;15510;52.512;13.300;2023-06-10T08:40:20;22.80;99.90
28244;DHT22;15510;52.512;13.300;2023-06-10T08:42:54;23.10;99.90
28244;DHT22;15510;52.512;13.300;2023-06-10T08:45:23;23.40;99.90
28244;DHT22;15510;52.512;13.300;2023-06-10T08:47:50;23.40;99.90
28244;DHT22;15510;52.512;13.300;2023-06-10T08:50:19;23.50;99.90
28244;DHT22;15510;52.512;13.300;2023-06-10T08:52:48;23.70;99.90
28244;DHT22;15510;52.512;13.300;2023-06-10T08:55:18;23.90;99.90
28244;DHT22;15510;52.512;13.300;2023-06-10T08:57:48;24.10;99.90
28244;DHT22;15510;52.512;13.300;2023-06-10T09:00:16;24.40;99.90
28244;DHT22;15510;52.512;13.300;2023-06-10T09:02:43;24.50;99.90
28244;DHT22;15510;52.512;13.300;2023-06-10T09:05:09;24.60;99.90
28244;DHT22;15510;52.512;13.300;2023-06-10T09:07:35;24.80;99.90
28244;DHT22;15510;52.512;13.300;2023-06-10T09:10:03;24.90;99.90
28244;DHT22;15510;52.512;13.300;2023-06-10T09:12:33;25.10;99.90
28244;DHT22;15510;52.512;13.300;2023-06-10T09:15:01;25.10;99.90
28244;DHT22;15510;52.512;13.300;2023-06-10T09:17:27;25.20;99.90
28244;DHT22;15510;52.512;13.300;2023-06-10T09:19:53;25.30;99.90
28244;DHT22;15510;52.512;13.300;2023-06-10T09:22:22;25.50;99.90
28244;DHT22;15510;52.512;13.300;2023-06-10T09:24:48;25.50;99.90
28244;DHT22;15510;52.512;13.300;2023-06-10T09:27:13;25.50;99.90
28244;DHT22;15510;52.512;13.300;2023-06-10T09:29:55;25.60;99.90
28244;DHT22;15510;52.512;13.300;2023-06-10T09:32:23;25.60;99.90
28244;DHT22;15510;52.512;13.300;2023-06-10T09:34:50;25.70;99.90
28244;DHT22;15510;52.512;13.300;2023-06-10T09:37:23;25.60;99.90
28244;DHT22;15510;52.512;13.300;2023-06-10T09:40:03;25.70;99.90
28244;DHT22;15510;52.512;13.300;2023-06-10T09:42:35;25.40;99.90
28244;DHT22;15510;52.512;13.300;2023-06-10T09:45:05;25.30;99.90
28244;DHT22;15510;52.512;13.300;2023-06-10T09:47:32;25.10;99.90
28244;DHT22;15510;52.512;13.300;2023-06-10T09:49:58;25.30;99.90
28244;DHT22;15510;52.512;13.300;2023-06-10T09:52:25;25.50;99.90
28244;DHT22;15510;52.512;13.300;2023-06-10T09:54:52;25.50;99.90
28244;DHT22;15510;52.512;13.300;2023-06-10T09:57:19;25.40;99.90
28244;DHT22;15510;52.512;13.300;2023-06-10T09:59:46;25.40;99.90
28244;DHT22;15510;52.512;13.300;2023-06-10T10:02:16;25.50;99.90
28244;DHT22;15510;52.512;13.300;2023-06-10T10:04:43;25.60;99.90
28244;DHT22;15510;52.512;13.300;2023-06-10T10:07:10;25.50;99.90
28244;DHT22;15510;52.512;13.300;2023-06-10T10:09:37;25.10;99.90
28244;DHT22;15510;52.512;13.300;2023-06-10T10:12:10;24.80;99.90
28244;DHT22;15510;52.512;13.300;2023-06-10T10:14:37;24.60;99.90
28244;DHT22;15510;52.512;13.300;2023-06-10T10:17:15;24.60;99.90
28244;DHT22;15510;52.512;13.300;2023-06-10T10:19:53;24.60;99.90
28244;DHT22;15510;52.512;13.300;2023-06-10T10:22:26;24.60;99.90
28244;DHT22;15510;52.512;13.300;2023-06-10T10:25:02;24.60;99.90
28244;DHT22;15510;52.512;13.300;2023-06-10T10:27:36;24.40;99.90
28244;DHT22;15510;52.512;13.300;2023-06-10T10:30:03;24.20;99.90
28244;DHT22;15510;52.512;13.300;2023-06-10T10:35:21;23.80;99.90
28244;DHT22;15510;52.512;13.300;2023-06-10T10:37:52;23.60;99.90
28244;DHT22;15510;52.512;13.300;2023-06-10T10:40:22;23.50;99.90
28244;DHT22;15510;52.512;13.300;2023-06-10T10:42:50;23.50;99.90
28244;DHT22;15510;52.512;13.300;2023-06-10T10:45:16;23.50;99.90
28244;DHT22;15510;52.512;13.300;2023-06-10T10:47:46;23.60;99.90
28244;DHT22;15510;52.512;13.300;2023-06-10T10:50:16;23.60;99.90
28244;DHT22;15510;52.512;13.300;2023-06-10T10:53:04;23.60;99.90
28244;DHT22;15510;52.512;13.300;2023-06-10T10:55:31;23.60;99.90
28244;DHT22;15510;52.512;13.300;2023-06-10T10:58:02;23.70;99.90
28244;DHT22;15510;52.512;13.300;2023-06-10T11:00:36;23.70;99.90
28244;DHT22;15510;52.512;13.300;2023-06-10T11:05:43;23.60;99.90
28244;DHT22;15510;52.512;13.300;2023-06-10T11:11:21;23.90;99.90
28244;DHT22;15510;52.512;13.300;2023-06-10T11:16:27;24.50;99.90
28244;DHT22;15510;52.512;13.300;2023-06-10T11:18:55;25.00;99.90
28244;DHT22;15510;52.512;13.300;2023-06-10T11:21:26;25.60;99.90
28244;DHT22;15510;52.512;13.300;2023-06-10T11:23:52;26.40;99.90
28244;DHT22;15510;52.512;13.300;2023-06-10T11:29:09;28.20;99.30
28244;DHT22;15510;52.512;13.300;2023-06-10T11:31:40;28.80;97.50
28244;DHT22;15510;52.512;13.300;2023-06-10T11:34:07;29.00;97.10
28244;DHT22;15510;52.512;13.300;2023-06-10T11:36:38;28.80;96.10
28244;DHT22;15510;52.512;13.300;2023-06-10T11:39:06;28.50;97.00
28244;DHT22;15510;52.512;13.300;2023-06-10T11:41:36;28.10;96.60
28244;DHT22;15510;52.512;13.300;2023-06-10T11:44:06;28.00;96.90
28244;DHT22;15510;52.512;13.300;2023-06-10T11:46:33;28.20;96.00
28244;DHT22;15510;52.512;13.300;2023-06-10T11:49:00;28.50;95.80
28244;DHT22;15510;52.512;13.300;2023-06-10T11:51:33;29.00;94.40
28244;DHT22;15510;52.512;13.300;2023-06-10T11:53:59;29.10;93.10
28244;DHT22;15510;52.512;13.300;2023-06-10T11:56:29;29.30;92.60
28244;DHT22;15510;52.512;13.300;2023-06-10T11:59:03;30.00;91.40
28244;DHT22;15510;52.512;13.300;2023-06-10T12:01:31;30.20;90.60
28244;DHT22;15510;52.512;13.300;2023-06-10T12:06:49;31.90;88.40
28244;DHT22;15510;52.512;13.300;2023-06-10T12:09:27;33.20;85.30
28244;DHT22;15510;52.512;13.300;2023-06-10T12:11:58;34.30;80.50
28244;DHT22;15510;52.512;13.300;2023-06-10T12:14:50;33.80;80.40
28244;DHT22;15510;52.512;13.300;2023-06-10T12:17:17;34.90;76.70
28244;DHT22;15510;52.512;13.300;2023-06-10T12:19:44;36.00;71.80
28244;DHT22;15510;52.512;13.300;2023-06-10T12:22:10;37.00;67.80
28244;DHT22;15510;52.512;13.300;2023-06-10T12:24:59;37.00;65.20
28244;DHT22;15510;52.512;13.300;2023-06-10T12:27:26;37.20;63.20
28244;DHT22;15510;52.512;13.300;2023-06-10T12:29:54;38.30;59.40
28244;DHT22;15510;52.512;13.300;2023-06-10T12:32:19;38.90;56.30
28244;DHT22;15510;52.512;13.300;2023-06-10T12:34:48;39.30;53.50
28244;DHT22;15510;52.512;13.300;2023-06-10T12:37:14;39.60;51.20
28244;DHT22;15510;52.512;13.300;2023-06-10T12:39:41;40.20;49.80
28244;DHT22;15510;52.512;13.300;2023-06-10T12:42:09;40.30;47.50
28244;DHT22;15510;52.512;13.300;2023-06-10T12:44:39;39.40;46.50
28244;DHT22;15510;52.512;13.300;2023-06-10T12:47:11;39.30;47.20
28244;DHT22;15510;52.512;13.300;2023-06-10T12:49:40;38.10;46.70
28244;DHT22;15510;52.512;13.300;2023-06-10T12:52:06;38.30;46.30
28244;DHT22;15510;52.512;13.300;2023-06-10T12:54:33;38.60;46.00
28244;DHT22;15510;52.512;13.300;2023-06-10T12:57:00;38.20;45.40
28244;DHT22;15510;52.512;13.300;2023-06-10T12:59:27;37.40;46.60
28244;DHT22;15510;52.512;13.300;2023-06-10T13:01:56;38.20;46.40
28244;DHT22;15510;52.512;13.300;2023-06-10T13:04:22;39.10;45.10
28244;DHT22;15510;52.512;13.300;2023-06-10T13:06:48;38.80;45.20
28244;DHT22;15510;52.512;13.300;2023-06-10T13:09:15;39.60;44.10
28244;DHT22;15510;52.512;13.300;2023-06-10T13:11:42;39.80;44.10
28244;DHT22;15510;52.512;13.300;2023-06-10T13:14:08;38.90;44.90
28244;DHT22;15510;52.512;13.300;2023-06-10T13:16:35;39.40;44.90
28244;DHT22;15510;52.512;13.300;2023-06-10T13:19:04;39.20;45.10
28244;DHT22;15510;52.512;13.300;2023-06-10T13:21:32;40.00;44.60
28244;DHT22;15510;52.512;13.300;2023-06-10T13:23:58;40.60;43.20
28244;DHT22;15510;52.512;13.300;2023-06-10T13:26:24;40.30;43.30
28244;DHT22;15510;52.512;13.300;2023-06-10T13:28:50;40.20;43.70
28244;DHT22;15510;52.512;13.300;2023-06-10T13:31:15;40.70;43.20
28244;DHT22;15510;52.512;13.300;2023-06-10T13:33:41;40.80;42.60
28244;DHT22;15510;52.512;13.300;2023-06-10T13:36:09;41.00;42.30
28244;DHT22;15510;52.512;13.300;2023-06-10T13:38:36;41.30;42.00
28244;DHT22;15510;52.512;13.300;2023-06-10T13:41:02;41.30;41.40
28244;DHT22;15510;52.512;13.300;2023-06-10T13:43:28;40.50;42.00
28244;DHT22;15510;52.512;13.300;2023-06-10T13:45:54;39.80;42.20
28244;DHT22;15510;52.512;13.300;2023-06-10T13:48:20;38.90;43.80
28244;DHT22;15510;52.512;13.300;2023-06-10T13:50:46;40.00;42.60
28244;DHT22;15510;52.512;13.300;2023-06-10T13:53:12;40.30;42.00
28244;DHT22;15510;52.512;13.300;2023-06-10T13:55:38;40.80;41.70
28244;DHT22;15510;52.512;13.300;2023-06-10T13:58:04;41.50;40.30
28244;DHT22;15510;52.512;13.300;2023-06-10T14:00:31;42.00;39.80
28244;DHT22;15510;52.512;13.300;2023-06-10T14:02:57;42.30;39.10
28244;DHT22;15510;52.512;13.300;2023-06-10T14:05:23;42.70;38.50
28244;DHT22;15510;52.512;13.300;2023-06-10T14:07:48;42.80;37.80
28244;DHT22;15510;52.512;13.300;2023-06-10T14:10:14;43.40;37.10
28244;DHT22;15510;52.512;13.300;2023-06-10T14:12:42;43.40;36.30
28244;DHT22;15510;52.512;13.300;2023-06-10T14:15:12;43.60;36.20
28244;DHT22;15510;52.512;13.300;2023-06-10T14:17:38;43.70;35.90
28244;DHT22;15510;52.512;13.300;2023-06-10T14:20:07;43.80;35.80
28244;DHT22;15510;52.512;13.300;2023-06-10T14:22:33;42.90;36.50
28244;DHT22;15510;52.512;13.300;2023-06-10T14:24:59;42.00;38.30
28244;DHT22;15510;52.512;13.300;2023-06-10T14:27:24;41.30;38.50
28244;DHT22;15510;52.512;13.300;2023-06-10T14:29:50;41.20;38.50
28244;DHT22;15510;52.512;13.300;2023-06-10T14:32:16;41.50;38.10
28244;DHT22;15510;52.512;13.300;2023-06-10T14:34:42;42.40;36.90
28244;DHT22;15510;52.512;13.300;2023-06-10T14:37:10;42.10;36.40
28244;DHT22;15510;52.512;13.300;2023-06-10T14:39:36;42.50;34.70
28244;DHT22;15510;52.512;13.300;2023-06-10T14:42:02;43.10;34.10
28244;DHT22;15510;52.512;13.300;2023-06-10T14:44:31;42.10;32.90
28244;DHT22;15510;52.512;13.300;2023-06-10T14:46:57;42.00;33.20
28244;DHT22;15510;52.512;13.300;2023-06-10T14:49:23;42.20;32.20
28244;DHT22;15510;52.512;13.300;2023-06-10T14:51:51;42.30;32.30
28244;DHT22;15510;52.512;13.300;2023-06-10T14:54:19;40.40;33.10
28244;DHT22;15510;52.512;13.300;2023-06-10T14:56:45;38.30;35.90
28244;DHT22;15510;52.512;13.300;2023-06-10T14:59:11;36.90;37.80
28244;DHT22;15510;52.512;13.300;2023-06-10T15:01:37;35.40;38.90
28244;DHT22;15510;52.512;13.300;2023-06-10T15:04:05;34.10;40.20
28244;DHT22;15510;52.512;13.300;2023-06-10T15:06:31;32.90;42.00
28244;DHT22;15510;52.512;13.300;2023-06-10T15:08:57;32.20;43.40
28244;DHT22;15510;52.512;13.300;2023-06-10T15:11:23;31.50;44.00
28244;DHT22;15510;52.512;13.300;2023-06-10T15:13:49;31.00;44.70
28244;DHT22;15510;52.512;13.300;2023-06-10T15:16:15;30.80;45.20
28244;DHT22;15510;52.512;13.300;2023-06-10T15:18:41;30.60;46.10
28244;DHT22;15510;52.512;13.300;2023-06-10T15:21:06;30.40;45.70
28244;DHT22;15510;52.512;13.300;2023-06-10T15:23:32;30.10;46.30
28244;DHT22;15510;52.512;13.300;2023-06-10T15:25:58;30.10;46.50
28244;DHT22;15510;52.512;13.300;2023-06-10T15:28:24;29.80;46.70
28244;DHT22;15510;52.512;13.300;2023-06-10T15:30:50;29.60;47.20
28244;DHT22;15510;52.512;13.300;2023-06-10T15:33:16;29.20;48.00
28244;DHT22;15510;52.512;13.300;2023-06-10T15:35:41;29.10;49.30
28244;DHT22;15510;52.512;13.300;2023-06-10T15:38:07;29.20;48.60
28244;DHT22;15510;52.512;13.300;2023-06-10T15:40:33;29.20;49.60